sensor_id;sensor_type;location;lat;lon;timestamp;temperature;humidity
41060;DHT22;26811;53.160;8.202;2022-10-17T00:03:02;11.80;99.90
41060;DHT22;26811;53.160;8.202;2022-10-17T00:08:03;11.80;99.90
41060;DHT22;26811;53.160;8.202;2022-10-17T00:13:04;11.80;99.90
41060;DHT22;26811;53.160;8.202;2022-10-17T00:18:04;11.80;99.90
41060;DHT22;26811;53.160;8.202;2022-10-17T00:23:05;11.90;99.90
41060;DHT22;26811;53.160;8.202;2022-10-17T00:28:09;11.90;99.90
41060;DHT22;26811;53.160;8.202;2022-10-17T00:33:12;11.90;99.90
41060;DHT22;26811;53.160;8.202;2022-10-17T00:38:13;12.00;99.90
41060;DHT22;26811;53.160;8.202;2022-10-17T00:43:14;12.00;99.90
41060;DHT22;26811;53.160;8.202;2022-10-17T00:48:15;12.10;99.90
41060;DHT22;26811;53.160;8.202;2022-10-17T00:53:16;12.10;99.90
41060;DHT22;26811;53.160;8.202;2022-10-17T00:58:17;12.10;99.90
41060;DHT22;26811;53.160;8.202;2022-10-17T01:03:19;12.20;99.90
41060;DHT22;26811;53.160;8.202;2022-10-17T01:08:19;12.20;99.90
41060;DHT22;26811;53.160;8.202;2022-10-17T01:13:22;12.20;99.90
41060;DHT22;26811;53.160;8.202;2022-10-17T01:23:59;12.30;99.90
41060;DHT22;26811;53.160;8.202;2022-10-17T01:29:00;12.30;99.90
41060;DHT22;26811;53.160;8.202;2022-10-17T01:34:04;12.30;99.90
41060;DHT22;26811;53.160;8.202;2022-10-17T01:39:13;12.30;99.90
41060;DHT22;26811;53.160;8.202;2022-10-17T01:44:17;12.30;99.90
41060;DHT22;26811;53.160;8.202;2022-10-17T01:49:23;12.40;99.90
41060;DHT22;26811;53.160;8.202;2022-10-17T01:54:38;12.40;99.90
41060;DHT22;26811;53.160;8.202;2022-10-17T01:59:40;12.50;99.90
41060;DHT22;26811;53.160;8.202;2022-10-17T02:04:41;12.40;99.90
41060;DHT22;26811;53.160;8.202;2022-10-17T02:09:42;12.50;99.90
41060;DHT22;26811;53.160;8.202;2022-10-17T02:19:54;12.30;99.90
41060;DHT22;26811;53.160;8.202;2022-10-17T02:35:17;12.30;99.90
41060;DHT22;26811;53.160;8.202;2022-10-17T02:40:19;12.30;99.90
41060;DHT22;26811;53.160;8.202;2022-10-17T02:45:21;12.20;99.90
41060;DHT22;26811;53.160;8.202;2022-10-17T02:50:25;12.20;99.90
41060;DHT22;26811;53.160;8.202;2022-10-17T02:55:29;12.20;99.90
41060;DHT22;26811;53.160;8.202;2022-10-17T03:00:30;12.20;99.90
41060;DHT22;26811;53.160;8.202;2022-10-17T03:05:31;12.20;99.90
41060;DHT22;26811;53.160;8.202;2022-10-17T03:10:31;12.20;99.90
41060;DHT22;26811;53.160;8.202;2022-10-17T03:15:32;12.20;99.90
41060;DHT22;26811;53.160;8.202;2022-10-17T03:20:32;12.20;99.90
41060;DHT22;26811;53.160;8.202;2022-10-17T03:25:33;12.10;99.90
41060;DHT22;26811;53.160;8.202;2022-10-17T03:30:33;12.20;99.90
41060;DHT22;26811;53.160;8.202;2022-10-17T03:35:34;12.20;99.90
41060;DHT22;26811;53.160;8.202;2022-10-17T03:40:37;12.20;99.90
41060;DHT22;26811;53.160;8.202;2022-10-17T03:45:38;12.20;99.90
41060;DHT22;26811;53.160;8.202;2022-10-17T03:50:39;12.20;99.90
41060;DHT22;26811;53.160;8.202;2022-10-17T03:55:39;12.20;99.90
41060;DHT22;26811;53.160;8.202;2022-10-17T04:00:39;12.10;99.90
41060;DHT22;26811;53.160;8.202;2022-10-17T04:05:40;12.10;99.90
41060;DHT22;26811;53.160;8.202;2022-10-17T04:10:41;12.00;99.90
41060;DHT22;26811;53.160;8.202;2022-10-17T04:15:41;12.00;99.90
41060;DHT22;26811;53.160;8.202;2022-10-17T04:20:41;11.90;99.90
41060;DHT22;26811;53.160;8.202;2022-10-17T04:25:42;11.90;99.90
41060;DHT22;26811;53.160;8.202;2022-10-17T04:30:42;11.90;99.90
41060;DHT22;26811;53.160;8.202;2022-10-17T04:35:43;11.90;99.90
41060;DHT22;26811;53.160;8.202;2022-10-17T04:40:43;11.90;99.90
41060;DHT22;26811;53.160;8.202;2022-10-17T04:45:44;11.80;99.90
41060;DHT22;26811;53.160;8.202;2022-10-17T04:55:54;11.90;99.90
41060;DHT22;26811;53.160;8.202;2022-10-17T05:00:55;11.80;99.90
41060;DHT22;26811;53.160;8.202;2022-10-17T05:05:56;11.80;99.90
41060;DHT22;26811;53.160;8.202;2022-10-17T05:10:56;11.80;99.90
41060;DHT22;26811;53.160;8.202;2022-10-17T05:15:57;11.80;99.90
41060;DHT22;26811;53.160;8.202;2022-10-17T05:20:58;11.80;99.90
41060;DHT22;26811;53.160;8.202;2022-10-17T05:25:58;11.70;99.90
41060;DHT22;26811;53.160;8.202;2022-10-17T05:31:05;11.70;99.90
41060;DHT22;26811;53.160;8.202;2022-10-17T05:36:06;11.70;99.90
41060;DHT22;26811;53.160;8.202;2022-10-17T05:41:08;11.70;99.90
41060;DHT22;26811;53.160;8.202;2022-10-17T05:46:09;11.70;99.90
41060;DHT22;26811;53.160;8.202;2022-10-17T05:51:09;11.80;99.90
41060;DHT22;26811;53.160;8.202;2022-10-17T05:56:12;11.80;99.90
41060;DHT22;26811;53.160;8.202;2022-10-17T06:01:14;11.80;99.90
41060;DHT22;26811;53.160;8.202;2022-10-17T06:06:14;11.80;99.90
41060;DHT22;26811;53.160;8.202;2022-10-17T06:11:15;11.80;99.90
41060;DHT22;26811;53.160;8.202;2022-10-17T06:16:16;11.80;99.90
41060;DHT22;26811;53.160;8.202;2022-10-17T06:21:18;12.00;99.90
41060;DHT22;26811;53.160;8.202;2022-10-17T06:26:19;12.10;99.90
41060;DHT22;26811;53.160;8.202;2022-10-17T06:31:22;12.40;99.90
41060;DHT22;26811;53.160;8.202;2022-10-17T06:36:25;12.70;99.90
41060;DHT22;26811;53.160;8.202;2022-10-17T06:41:26;13.00;99.90
41060;DHT22;26811;53.160;8.202;2022-10-17T06:46:26;13.30;99.90
41060;DHT22;26811;53.160;8.202;2022-10-17T06:51:30;13.60;99.90
41060;DHT22;26811;53.160;8.202;2022-10-17T06:56:33;13.80;99.90
41060;DHT22;26811;53.160;8.202;2022-10-17T07:01:34;13.90;99.90
41060;DHT22;26811;53.160;8.202;2022-10-17T07:06:39;14.10;99.90
41060;DHT22;26811;53.160;8.202;2022-10-17T07:11:40;14.20;99.90
41060;DHT22;26811;53.160;8.202;2022-10-17T07:16:44;14.40;99.90
41060;DHT22;26811;53.160;8.202;2022-10-17T07:21:44;14.70;99.90
41060;DHT22;26811;53.160;8.202;2022-10-17T07:26:45;14.80;99.90
41060;DHT22;26811;53.160;8.202;2022-10-17T07:31:45;15.00;99.90
41060;DHT22;26811;53.160;8.202;2022-10-17T07:36:48;15.10;99.90
41060;DHT22;26811;53.160;8.202;2022-10-17T07:41:48;15.30;99.90
41060;DHT22;26811;53.160;8.202;2022-10-17T07:46:50;15.50;99.90
41060;DHT22;26811;53.160;8.202;2022-10-17T07:51:50;15.70;99.90
41060;DHT22;26811;53.160;8.202;2022-10-17T07:56:51;15.90;99.90
41060;DHT22;26811;53.160;8.202;2022-10-17T08:01:54;16.20;99.90
41060;DHT22;26811;53.160;8.202;2022-10-17T08:06:54;16.40;99.90
41060;DHT22;26811;53.160;8.202;2022-10-17T08:11:55;16.70;99.90
41060;DHT22;26811;53.160;8.202;2022-10-17T08:16:56;16.90;99.90
41060;DHT22;26811;53.160;8.202;2022-10-17T08:21:59;17.20;99.90
41060;DHT22;26811;53.160;8.202;2022-10-17T08:27:01;17.40;99.90
41060;DHT22;26811;53.160;8.202;2022-10-17T08:32:04;17.70;99.90
41060;DHT22;26811;53.160;8.202;2022-10-17T08:37:11;18.10;99.90
41060;DHT22;26811;53.160;8.202;2022-10-17T08:52:50;19.20;99.90
41060;DHT22;26811;53.160;8.202;2022-10-17T08:57:51;19.40;99.90
41060;DHT22;26811;53.160;8.202;2022-10-17T09:02:55;19.30;99.90
41060;DHT22;26811;53.160;8.202;2022-10-17T09:08:04;19.30;99.90
41060;DHT22;26811;53.160;8.202;2022-10-17T09:18:31;19.50;99.90
41060;DHT22;26811;53.160;8.202;2022-10-17T09:23:35;19.70;99.90
41060;DHT22;26811;53.160;8.202;2022-10-17T09:28:37;20.00;99.90
41060;DHT22;26811;53.160;8.202;2022-10-17T09:33:39;20.00;99.90
41060;DHT22;26811;53.160;8.202;2022-10-17T09:38:41;19.80;99.90
41060;DHT22;26811;53.160;8.202;2022-10-17T09:43:42;19.70;99.90
41060;DHT22;26811;53.160;8.202;2022-10-17T09:49:17;19.70;99.90
41060;DHT22;26811;53.160;8.202;2022-10-17T09:54:13;19.80;99.90
41060;DHT22;26811;53.160;8.202;2022-10-17T09:59:28;19.90;99.90
41060;DHT22;26811;53.160;8.202;2022-10-17T10:04:29;19.80;99.90
41060;DHT22;26811;53.160;8.202;2022-10-17T10:09:30;19.70;99.90
41060;DHT22;26811;53.160;8.202;2022-10-17T10:14:35;19.60;99.90
41060;DHT22;26811;53.160;8.202;2022-10-17T10:19:37;19.50;99.90
41060;DHT22;26811;53.160;8.202;2022-10-17T10:24:37;19.50;99.90
41060;DHT22;26811;53.160;8.202;2022-10-17T10:29:42;19.50;99.90
41060;DHT22;26811;53.160;8.202;2022-10-17T10:39:55;19.70;99.90
41060;DHT22;26811;53.160;8.202;2022-10-17T10:44:58;19.90;99.90
41060;DHT22;26811;53.160;8.202;2022-10-17T10:55:26;19.90;99.90
41060;DHT22;26811;53.160;8.202;2022-10-17T11:00:29;20.00;99.90
41060;DHT22;26811;53.160;8.202;2022-10-17T11:10:43;19.70;99.90
41060;DHT22;26811;53.160;8.202;2022-10-17T11:15:52;19.30;99.90
41060;DHT22;26811;53.160;8.202;2022-10-17T11:25:58;18.10;99.90
41060;DHT22;26811;53.160;8.202;2022-10-17T11:31:02;18.00;99.90
41060;DHT22;26811;53.160;8.202;2022-10-17T11:36:04;18.00;99.90
41060;DHT22;26811;53.160;8.202;2022-10-17T11:41:05;17.90;99.90
41060;DHT22;26811;53.160;8.202;2022-10-17T11:46:17;18.00;99.90
41060;DHT22;26811;53.160;8.202;2022-10-17T11:51:18;17.70;99.90
41060;DHT22;26811;53.160;8.202;2022-10-17T11:56:21;17.50;99.90
41060;DHT22;26811;53.160;8.202;2022-10-17T12:12:32;17.30;99.90
41060;DHT22;26811;53.160;8.202;2022-10-17T12:18:28;17.30;99.90
41060;DHT22;26811;53.160;8.202;2022-10-17T12:28:16;17.30;99.90
41060;DHT22;26811;53.160;8.202;2022-10-17T12:33:37;17.40;99.90
41060;DHT22;26811;53.160;8.202;2022-10-17T12:38:39;17.40;99.90
41060;DHT22;26811;53.160;8.202;2022-10-17T12:43:45;17.50;99.90
41060;DHT22;26811;53.160;8.202;2022-10-17T12:48:57;17.40;99.90
41060;DHT22;26811;53.160;8.202;2022-10-17T12:54:13;17.40;99.90
41060;DHT22;26811;53.160;8.202;2022-10-17T12:59:42;17.30;99.90
41060;DHT22;26811;53.160;8.202;2022-10-17T13:04:58;17.30;99.90
41060;DHT22;26811;53.160;8.202;2022-10-17T13:15:35;17.30;99.90
41060;DHT22;26811;53.160;8.202;2022-10-17T13:20:36;17.20;99.90
41060;DHT22;26811;53.160;8.202;2022-10-17T13:25:40;17.20;99.90
41060;DHT22;26811;53.160;8.202;2022-10-17T13:30:46;17.10;99.90
41060;DHT22;26811;53.160;8.202;2022-10-17T13:35:50;17.10;99.90
41060;DHT22;26811;53.160;8.202;2022-10-17T13:41:00;17.10;99.90
41060;DHT22;26811;53.160;8.202;2022-10-17T13:46:11;17.00;99.90
41060;DHT22;26811;53.160;8.202;2022-10-17T13:51:21;17.00;99.90
41060;DHT22;26811;53.160;8.202;2022-10-17T13:56:25;16.90;99.90
41060;DHT22;26811;53.160;8.202;2022-10-17T14:01:29;16.90;99.90
41060;DHT22;26811;53.160;8.202;2022-10-17T14:06:32;16.90;99.90
41060;DHT22;26811;53.160;8.202;2022-10-17T14:11:35;16.80;99.90
41060;DHT22;26811;53.160;8.202;2022-10-17T14:16:39;16.80;99.90
41060;DHT22;26811;53.160;8.202;2022-10-17T14:21:46;16.80;99.90
41060;DHT22;26811;53.160;8.202;2022-10-17T14:31:48;16.80;99.90
41060;DHT22;26811;53.160;8.202;2022-10-17T14:36:52;16.80;99.90
41060;DHT22;26811;53.160;8.202;2022-10-17T14:41:53;16.80;99.90
41060;DHT22;26811;53.160;8.202;2022-10-17T14:46:58;16.80;99.90
41060;DHT22;26811;53.160;8.202;2022-10-17T14:57:17;16.80;99.90
41060;DHT22;26811;53.160;8.202;2022-10-17T15:02:21;16.80;99.90
41060;DHT22;26811;53.160;8.202;2022-10-17T15:07:21;16.80;99.90
41060;DHT22;26811;53.160;8.202;2022-10-17T15:12:23;16.90;99.90
41060;DHT22;26811;53.160;8.202;2022-10-17T15:17:28;16.90;99.90
41060;DHT22;26811;53.160;8.202;2022-10-17T15:22:28;16.90;99.90
41060;DHT22;26811;53.160;8.202;2022-10-17T15:27:30;16.80;99.90
41060;DHT22;26811;53.160;8.202;2022-10-17T15:32:31;16.80;99.90
41060;DHT22;26811;53.160;8.202;2022-10-17T15:37:32;16.80;99.90
41060;DHT22;26811;53.160;8.202;2022-10-17T15:42:33;16.80;99.90
41060;DHT22;26811;53.160;8.202;2022-10-17T15:47:33;16.70;99.90
41060;DHT22;26811;53.160;8.202;2022-10-17T15:52:34;16.70;99.90
41060;DHT22;26811;53.160;8.202;2022-10-17T15:57:42;16.70;99.90
41060;DHT22;26811;53.160;8.202;2022-10-17T16:02:43;16.70;99.90
41060;DHT22;26811;53.160;8.202;2022-10-17T16:07:44;16.70;99.90
41060;DHT22;26811;53.160;8.202;2022-10-17T16:12:48;16.60;99.90
41060;DHT22;26811;53.160;8.202;2022-10-17T16:23:27;16.60;99.90
41060;DHT22;26811;53.160;8.202;2022-10-17T16:28:49;16.50;99.90
41060;DHT22;26811;53.160;8.202;2022-10-17T16:34:10;16.30;99.90
41060;DHT22;26811;53.160;8.202;2022-10-17T16:45:22;16.00;99.90
41060;DHT22;26811;53.160;8.202;2022-10-17T16:50:23;15.90;99.90
41060;DHT22;26811;53.160;8.202;2022-10-17T16:55:34;15.80;99.90
41060;DHT22;26811;53.160;8.202;2022-10-17T17:00:37;15.80;99.90
41060;DHT22;26811;53.160;8.202;2022-10-17T17:05:40;15.70;99.90
41060;DHT22;26811;53.160;8.202;2022-10-17T17:10:44;15.70;99.90
41060;DHT22;26811;53.160;8.202;2022-10-17T17:15:45;15.60;99.90
41060;DHT22;26811;53.160;8.202;2022-10-17T17:20:46;15.60;99.90
41060;DHT22;26811;53.160;8.202;2022-10-17T17:25:58;15.50;99.90
41060;DHT22;26811;53.160;8.202;2022-10-17T17:30:59;15.50;99.90
41060;DHT22;26811;53.160;8.202;2022-10-17T17:36:00;15.50;99.90
41060;DHT22;26811;53.160;8.202;2022-10-17T17:41:04;15.50;99.90
41060;DHT22;26811;53.160;8.202;2022-10-17T17:46:04;15.40;99.90
41060;DHT22;26811;53.160;8.202;2022-10-17T17:51:06;15.30;99.90
41060;DHT22;26811;53.160;8.202;2022-10-17T17:56:11;15.30;99.90
41060;DHT22;26811;53.160;8.202;2022-10-17T18:01:17;15.20;99.90
41060;DHT22;26811;53.160;8.202;2022-10-17T18:06:20;15.10;99.90
41060;DHT22;26811;53.160;8.202;2022-10-17T18:11:21;15.10;99.90
41060;DHT22;26811;53.160;8.202;2022-10-17T18:16:22;15.00;99.90
41060;DHT22;26811;53.160;8.202;2022-10-17T18:21:22;15.00;99.90
41060;DHT22;26811;53.160;8.202;2022-10-17T18:26:23;14.90;99.90
41060;DHT22;26811;53.160;8.202;2022-10-17T18:31:23;14.90;99.90
41060;DHT22;26811;53.160;8.202;2022-10-17T18:36:28;14.90;99.90
41060;DHT22;26811;53.160;8.202;2022-10-17T18:41:29;14.90;99.90
41060;DHT22;26811;53.160;8.202;2022-10-17T18:46:33;14.80;99.90
41060;DHT22;26811;53.160;8.202;2022-10-17T18:51:35;14.70;99.90
41060;DHT22;26811;53.160;8.202;2022-10-17T18:56:36;14.80;99.90
41060;DHT22;26811;53.160;8.202;2022-10-17T19:01:40;14.60;99.90
41060;DHT22;26811;53.160;8.202;2022-10-17T19:06:42;14.60;99.90
41060;DHT22;26811;53.160;8.202;2022-10-17T19:11:43;14.60;99.90
41060;DHT22;26811;53.160;8.202;2022-10-17T19:16:44;14.60;99.90
41060;DHT22;26811;53.160;8.202;2022-10-17T19:21:46;14.50;99.90
41060;DHT22;26811;53.160;8.202;2022-10-17T19:26:47;14.50;99.90
41060;DHT22;26811;53.160;8.202;2022-10-17T19:31:53;14.40;99.90
41060;DHT22;26811;53.160;8.202;2022-10-17T19:36:56;14.40;99.90
41060;DHT22;26811;53.160;8.202;2022-10-17T19:41:57;14.40;99.90
41060;DHT22;26811;53.160;8.202;2022-10-17T19:46:59;14.30;99.90
41060;DHT22;26811;53.160;8.202;2022-10-17T19:52:00;14.30;99.90
41060;DHT22;26811;53.160;8.202;2022-10-17T19:57:00;14.30;99.90
41060;DHT22;26811;53.160;8.202;2022-10-17T20:02:01;14.30;99.90
41060;DHT22;26811;53.160;8.202;2022-10-17T20:07:01;14.20;99.90
41060;DHT22;26811;53.160;8.202;2022-10-17T20:12:02;14.20;99.90
41060;DHT22;26811;53.160;8.202;2022-10-17T20:17:06;14.10;99.90
41060;DHT22;26811;53.160;8.202;2022-10-17T20:22:06;14.20;99.90
41060;DHT22;26811;53.160;8.202;2022-10-17T20:27:07;14.10;99.90
41060;DHT22;26811;53.160;8.202;2022-10-17T20:32:07;14.10;99.90
41060;DHT22;26811;53.160;8.202;2022-10-17T20:37:07;14.20;99.90
41060;DHT22;26811;53.160;8.202;2022-10-17T20:42:08;14.10;99.90
41060;DHT22;26811;53.160;8.202;2022-10-17T20:47:08;14.20;99.90
41060;DHT22;26811;53.160;8.202;2022-10-17T20:52:09;14.20;99.90
41060;DHT22;26811;53.160;8.202;2022-10-17T20:57:10;14.20;99.90
41060;DHT22;26811;53.160;8.202;2022-10-17T21:02:11;14.20;99.90
41060;DHT22;26811;53.160;8.202;2022-10-17T21:07:11;14.10;99.90
41060;DHT22;26811;53.160;8.202;2022-10-17T21:12:15;14.10;99.90
41060;DHT22;26811;53.160;8.202;2022-10-17T21:17:15;14.10;99.90
41060;DHT22;26811;53.160;8.202;2022-10-17T21:22:16;14.10;99.90
41060;DHT22;26811;53.160;8.202;2022-10-17T21:27:17;14.10;99.90
41060;DHT22;26811;53.160;8.202;2022-10-17T21:32:17;14.10;99.90
41060;DHT22;26811;53.160;8.202;2022-10-17T21:37:18;14.00;99.90
41060;DHT22;26811;53.160;8.202;2022-10-17T21:42:18;14.00;99.90
41060;DHT22;26811;53.160;8.202;2022-10-17T21:47:19;14.00;99.90
41060;DHT22;26811;53.160;8.202;2022-10-17T21:52:20;14.10;99.90
41060;DHT22;26811;53.160;8.202;2022-10-17T21:57:21;14.10;99.90
41060;DHT22;26811;53.160;8.202;2022-10-17T22:02:22;14.20;99.90
41060;DHT22;26811;53.160;8.202;2022-10-17T22:07:22;14.10;99.90
41060;DHT22;26811;53.160;8.202;2022-10-17T22:12:23;14.20;99.90
41060;DHT22;26811;53.160;8.202;2022-10-17T22:17:23;14.20;99.90
41060;DHT22;26811;53.160;8.202;2022-10-17T22:22:24;14.20;99.90
41060;DHT22;26811;53.160;8.202;2022-10-17T22:27:24;14.20;99.90
41060;DHT22;26811;53.160;8.202;2022-10-17T22:32:25;14.20;99.90
41060;DHT22;26811;53.160;8.202;2022-10-17T22:37:25;14.10;99.90
41060;DHT22;26811;53.160;8.202;2022-10-17T22:42:26;14.10;99.90
41060;DHT22;26811;53.160;8.202;2022-10-17T22:47:30;14.20;99.90
41060;DHT22;26811;53.160;8.202;2022-10-17T22:52:30;14.20;99.90
41060;DHT22;26811;53.160;8.202;2022-10-17T22:57:31;14.20;99.90
41060;DHT22;26811;53.160;8.202;2022-10-17T23:02:31;14.20;99.90
41060;DHT22;26811;53.160;8.202;2022-10-17T23:07:32;14.20;99.90
41060;DHT22;26811;53.160;8.202;2022-10-17T23:12:32;14.20;99.90
41060;DHT22;26811;53.160;8.202;2022-10-17T23:17:33;14.10;99.90
41060;DHT22;26811;53.160;8.202;2022-10-17T23:22:33;14.00;99.90
41060;DHT22;26811;53.160;8.202;2022-10-17T23:27:34;13.90;99.90
41060;DHT22;26811;53.160;8.202;2022-10-17T23:32:34;14.00;99.90
41060;DHT22;26811;53.160;8.202;2022-10-17T23:37:35;14.00;99.90
41060;DHT22;26811;53.160;8.202;2022-10-17T23:42:35;14.00;99.90
41060;DHT22;26811;53.160;8.202;2022-10-17T23:47:36;14.00;99.90
41060;DHT22;26811;53.160;8.202;2022-10-17T23:52:36;14.00;99.90
41060;DHT22;26811;53.160;8.202;2022-10-17T23:57:37;14.00;99.90
